Time;durP1;ratioP1;P1;durP2;ratioP2;P2;SDS_P1;SDS_P2;PMS_P1;PMS_P2;Temp;Humidity;BMP_temperature;BMP_pressure;BME280_temperature;BME280_humidity;BME280_pressure;Samples;Min_cycle;Max_cycle;Signal;HPM_P1;HPM_P2
2023/07/31 00:00:06;;;;;;;6.32;3.80;;;21.60;99.90;;;;;;4989600;28;20400;-74
2023/07/31 00:02:32;;;;;;;5.97;3.95;;;21.60;99.90;;;;;;4988138;28;20042;-75
2023/07/31 00:04:58;;;;;;;5.70;3.05;;;21.60;99.90;;;;;;4992114;28;20384;-75
2023/07/31 00:07:23;;;;;;;8.07;3.10;;;21.70;99.90;;;;;;4992911;28;20529;-75
2023/07/31 00:09:49;;;;;;;5.38;2.78;;;21.70;99.90;;;;;;4992467;28;20504;-75
2023/07/31 00:12:14;;;;;;;4.25;2.78;;;21.70;99.90;;;;;;4991316;28;20126;-75
2023/07/31 00:14:40;;;;;;;5.35;2.95;;;21.80;99.90;;;;;;4992250;28;20042;-75
2023/07/31 00:17:06;;;;;;;7.07;2.85;;;21.80;99.90;;;;;;4989117;28;20025;-75
2023/07/31 00:19:31;;;;;;;5.95;3.60;;;21.80;99.90;;;;;;4990497;28;20065;-75
2023/07/31 00:21:57;;;;;;;7.82;3.78;;;21.70;99.90;;;;;;4991022;28;20041;-75
2023/07/31 00:24:23;;;;;;;5.82;3.45;;;21.70;99.90;;;;;;4973371;28;20030;-75
2023/07/31 00:26:48;;;;;;;4.93;3.17;;;21.80;99.90;;;;;;4988199;28;20089;-75
2023/07/31 00:29:14;;;;;;;6.85;2.85;;;21.70;99.90;;;;;;4992339;28;20050;-75
2023/07/31 00:31:40;;;;;;;6.20;3.40;;;21.70;99.90;;;;;;4992781;28;20535;-77
2023/07/31 00:34:05;;;;;;;5.05;3.30;;;21.50;99.90;;;;;;4992768;28;20551;-75
2023/07/31 00:36:31;;;;;;;5.40;2.90;;;21.40;99.90;;;;;;4989674;28;20030;-75
2023/07/31 00:38:56;;;;;;;6.45;3.70;;;21.40;99.90;;;;;;4993327;28;20030;-75
2023/07/31 00:41:22;;;;;;;7.80;3.05;;;21.20;99.90;;;;;;4978434;28;20139;-75
2023/07/31 00:43:48;;;;;;;5.38;3.03;;;21.40;99.90;;;;;;4995140;28;20066;-75
2023/07/31 00:46:13;;;;;;;9.57;3.72;;;21.50;99.90;;;;;;4996444;28;20492;-75
2023/07/31 00:48:40;;;;;;;5.35;3.05;;;21.50;99.90;;;;;;4995486;28;20072;-75
2023/07/31 00:51:06;;;;;;;4.60;3.10;;;21.50;99.90;;;;;;4994483;28;20049;-74
2023/07/31 00:53:32;;;;;;;5.20;2.97;;;21.40;99.90;;;;;;4991141;28;20027;-75
2023/07/31 00:55:58;;;;;;;5.25;3.10;;;21.30;99.90;;;;;;4977674;28;20030;-75
2023/07/31 00:58:23;;;;;;;4.65;3.08;;;21.40;99.90;;;;;;4993017;28;20472;-75
2023/07/31 01:00:50;;;;;;;5.93;3.28;;;21.40;99.90;;;;;;4993918;28;20034;-75
2023/07/31 01:03:16;;;;;;;5.97;2.95;;;21.50;99.90;;;;;;4990363;28;20043;-74
2023/07/31 01:06:12;;;;;;;6.10;2.95;;;21.50;99.90;;;;;;4995930;28;20038;-76
2023/07/31 01:08:48;;;;;;;5.82;3.10;;;21.50;99.90;;;;;;4993161;28;20096;-75
2023/07/31 01:11:37;;;;;;;7.60;3.53;;;21.50;99.90;;;;;;4990911;28;20061;-75
2023/07/31 01:14:03;;;;;;;5.00;3.40;;;21.60;99.90;;;;;;4992711;28;20049;-74
2023/07/31 01:16:29;;;;;;;5.00;3.03;;;21.60;99.90;;;;;;4993936;28;20027;-75
2023/07/31 01:18:54;;;;;;;6.47;4.00;;;21.70;99.90;;;;;;4993576;28;20030;-75
2023/07/31 01:21:26;;;;;;;6.05;2.88;;;21.60;99.90;;;;;;4993767;28;20076;-75
2023/07/31 01:24:15;;;;;;;6.60;3.10;;;21.50;99.90;;;;;;4993605;28;20026;-75
2023/07/31 01:26:47;;;;;;;6.15;3.15;;;21.50;99.90;;;;;;4993696;28;20080;-75
2023/07/31 01:29:51;;;;;;;6.13;2.95;;;21.50;99.90;;;;;;4977505;28;20026;-75
2023/07/31 01:32:18;;;;;;;4.40;2.83;;;21.50;99.90;;;;;;4991780;28;20125;-75
2023/07/31 01:34:44;;;;;;;7.43;3.35;;;21.50;99.90;;;;;;4992977;28;20040;-75
2023/07/31 01:37:10;;;;;;;6.38;3.38;;;21.50;99.90;;;;;;4993796;28;20113;-75
2023/07/31 01:39:36;;;;;;;8.88;3.95;;;21.50;99.90;;;;;;4991037;28;20113;-75
2023/07/31 01:42:01;;;;;;;6.65;3.35;;;21.40;99.90;;;;;;4993392;28;20034;-75
2023/07/31 01:44:27;;;;;;;4.75;3.30;;;21.50;99.90;;;;;;4991426;28;20082;-75
2023/07/31 01:46:53;;;;;;;5.15;3.30;;;21.50;99.90;;;;;;4982851;28;20026;-75
2023/07/31 01:49:18;;;;;;;4.85;3.42;;;21.50;99.90;;;;;;4993906;28;20027;-75
2023/07/31 01:51:44;;;;;;;9.50;3.70;;;21.60;99.90;;;;;;4992007;28;20034;-75
2023/07/31 01:54:10;;;;;;;7.03;3.40;;;21.50;99.90;;;;;;4993941;28;20045;-75
2023/07/31 01:56:36;;;;;;;5.60;3.47;;;21.50;99.90;;;;;;4991231;28;20503;-75
2023/07/31 01:59:02;;;;;;;4.53;3.20;;;21.40;99.90;;;;;;4992925;28;20057;-74
2023/07/31 02:01:27;;;;;;;6.65;3.35;;;21.50;99.90;;;;;;4990601;28;20041;-74
2023/07/31 02:03:54;;;;;;;5.00;2.90;;;21.30;99.90;;;;;;4994631;28;20025;-74
2023/07/31 02:06:19;;;;;;;5.97;3.72;;;21.30;99.90;;;;;;4995152;28;20042;-74
2023/07/31 02:08:45;;;;;;;6.95;3.42;;;21.30;99.90;;;;;;4993195;28;20030;-73
2023/07/31 02:11:11;;;;;;;5.43;3.50;;;21.30;99.90;;;;;;4992783;28;20153;-74
2023/07/31 02:13:36;;;;;;;5.43;3.38;;;21.20;99.90;;;;;;4993821;28;20035;-73
2023/07/31 02:16:02;;;;;;;4.88;2.90;;;21.10;99.90;;;;;;4994468;28;20038;-74
2023/07/31 02:18:27;;;;;;;5.60;3.42;;;20.90;99.90;;;;;;4992426;28;20033;-74
2023/07/31 02:20:53;;;;;;;7.20;3.03;;;20.80;99.90;;;;;;4993992;28;20022;-74
2023/07/31 02:23:19;;;;;;;4.53;2.45;;;20.70;99.90;;;;;;4993838;28;20484;-74
2023/07/31 02:25:45;;;;;;;5.47;3.30;;;20.60;99.90;;;;;;4993102;28;20088;-75
2023/07/31 02:28:11;;;;;;;5.93;3.10;;;20.40;99.90;;;;;;4994640;28;20030;-75
2023/07/31 02:30:37;;;;;;;6.20;3.58;;;20.30;99.90;;;;;;4994665;28;20207;-74
2023/07/31 02:33:04;;;;;;;4.90;3.10;;;20.30;99.90;;;;;;4992617;28;20042;-74
2023/07/31 02:35:29;;;;;;;6.25;3.17;;;20.30;99.90;;;;;;4993520;28;20070;-74
2023/07/31 02:37:55;;;;;;;6.47;3.55;;;20.40;99.90;;;;;;4993808;28;20057;-74
2023/07/31 02:40:21;;;;;;;6.78;3.60;;;20.40;99.90;;;;;;4992919;28;20042;-74
2023/07/31 02:42:46;;;;;;;5.18;3.40;;;20.40;99.90;;;;;;4991363;28;20030;-74
2023/07/31 02:45:12;;;;;;;8.60;3.97;;;20.50;99.90;;;;;;4993114;28;20034;-74
2023/07/31 02:47:38;;;;;;;6.18;3.78;;;20.50;99.90;;;;;;4992327;28;20492;-74
2023/07/31 02:50:04;;;;;;;7.43;3.38;;;20.50;99.90;;;;;;4994269;28;20026;-74
2023/07/31 02:52:30;;;;;;;5.57;3.70;;;20.50;99.90;;;;;;4983875;28;20034;-74
2023/07/31 02:54:57;;;;;;;10.35;3.72;;;20.50;99.90;;;;;;4980893;28;20093;-74
2023/07/31 02:57:23;;;;;;;5.70;3.17;;;20.40;99.90;;;;;;4991740;28;20435;-74
2023/07/31 02:59:48;;;;;;;5.40;3.33;;;20.40;99.90;;;;;;4989858;28;20034;-73
2023/07/31 03:02:15;;;;;;;5.70;3.50;;;20.50;99.90;;;;;;4980116;28;20073;-74
2023/07/31 03:04:41;;;;;;;4.63;3.40;;;20.50;99.90;;;;;;4981812;28;20444;-76
2023/07/31 03:07:06;;;;;;;5.82;3.50;;;20.40;99.90;;;;;;4987057;28;20077;-76
2023/07/31 03:09:32;;;;;;;7.57;4.53;;;20.40;99.90;;;;;;4984004;28;20026;-78
2023/07/31 03:11:58;;;;;;;5.40;2.88;;;20.30;99.90;;;;;;4986459;28;20433;-75
2023/07/31 03:14:26;;;;;;;8.50;3.00;;;20.30;99.90;;;;;;4983990;28;20038;-75
2023/07/31 03:16:51;;;;;;;7.72;3.78;;;20.30;99.90;;;;;;4983828;28;20527;-76
2023/07/31 03:19:17;;;;;;;4.32;2.97;;;20.40;99.90;;;;;;4976134;28;20046;-76
2023/07/31 03:21:43;;;;;;;6.30;3.25;;;20.40;99.90;;;;;;4985564;28;20038;-76
2023/07/31 03:24:08;;;;;;;8.70;3.47;;;20.40;99.90;;;;;;4987875;28;20030;-78
2023/07/31 03:26:35;;;;;;;6.40;2.88;;;20.40;99.90;;;;;;4987917;28;20035;-76
2023/07/31 03:29:00;;;;;;;6.45;2.72;;;20.30;99.90;;;;;;4987085;28;20030;-75
2023/07/31 03:31:26;;;;;;;4.20;2.53;;;20.30;99.90;;;;;;4986134;28;20041;-76
2023/07/31 03:33:52;;;;;;;4.82;2.67;;;20.40;99.90;;;;;;4987424;28;20026;-75
2023/07/31 03:36:17;;;;;;;5.35;2.50;;;20.40;99.90;;;;;;4987463;28;20457;-76
2023/07/31 03:38:43;;;;;;;6.97;3.08;;;20.40;99.90;;;;;;4988400;28;20551;-76
2023/07/31 03:41:10;;;;;;;5.53;2.55;;;20.30;99.90;;;;;;4985019;28;20393;-76
2023/07/31 03:43:36;;;;;;;4.00;2.35;;;20.30;99.90;;;;;;4986668;28;20109;-76
2023/07/31 03:46:02;;;;;;;3.47;2.00;;;20.30;99.90;;;;;;4986262;28;20124;-75
2023/07/31 03:48:28;;;;;;;4.43;2.22;;;20.20;99.90;;;;;;4982686;28;20036;-76
2023/07/31 03:50:54;;;;;;;5.30;2.45;;;20.30;99.90;;;;;;4985235;28;20023;-76
2023/07/31 03:53:20;;;;;;;5.82;1.85;;;20.30;99.90;;;;;;4987123;28;20045;-76
2023/07/31 03:55:45;;;;;;;4.47;2.45;;;20.20;99.90;;;;;;4983421;28;20100;-76
2023/07/31 03:58:11;;;;;;;6.57;3.42;;;20.20;99.90;;;;;;4983668;28;20026;-76
2023/07/31 04:00:37;;;;;;;6.20;2.65;;;20.00;99.90;;;;;;4982526;28;20096;-79
2023/07/31 04:03:03;;;;;;;5.65;3.25;;;20.10;99.90;;;;;;4982647;28;20484;-75
2023/07/31 04:05:31;;;;;;;5.57;3.30;;;20.10;99.90;;;;;;4985549;28;20085;-76
2023/07/31 04:07:57;;;;;;;5.65;2.90;;;20.00;99.90;;;;;;4987242;28;20566;-76
2023/07/31 04:10:22;;;;;;;4.40;2.75;;;20.00;99.90;;;;;;4988577;28;20097;-76
2023/07/31 04:12:48;;;;;;;6.47;2.58;;;20.00;99.90;;;;;;4989416;28;20122;-75
2023/07/31 04:15:14;;;;;;;4.93;2.10;;;20.10;99.90;;;;;;4992222;28;20060;-76
2023/07/31 04:17:40;;;;;;;4.05;2.35;;;20.00;99.90;;;;;;4991592;28;20046;-76
2023/07/31 04:20:06;;;;;;;4.30;2.58;;;20.10;99.90;;;;;;4992818;28;20037;-75
2023/07/31 04:22:31;;;;;;;4.97;2.53;;;20.20;99.90;;;;;;4991815;28;20035;-75
2023/07/31 04:24:57;;;;;;;5.30;3.15;;;20.20;99.90;;;;;;4991697;28;20028;-76
2023/07/31 04:27:23;;;;;;;6.55;2.70;;;20.20;99.90;;;;;;4991379;28;20461;-76
2023/07/31 04:29:48;;;;;;;7.38;3.08;;;20.20;99.90;;;;;;4992245;28;20023;-76
2023/07/31 04:32:16;;;;;;;4.97;3.20;;;20.30;99.90;;;;;;4990578;28;20484;-76
2023/07/31 04:34:42;;;;;;;5.63;3.28;;;20.30;99.90;;;;;;4990981;28;20036;-75
2023/07/31 04:37:08;;;;;;;6.00;3.10;;;20.30;99.90;;;;;;4990358;28;20507;-76
2023/07/31 04:39:33;;;;;;;5.53;3.03;;;20.30;99.90;;;;;;4992228;28;20034;-75
2023/07/31 04:41:59;;;;;;;6.40;2.63;;;20.20;99.90;;;;;;4990567;28;20026;-76
2023/07/31 04:44:25;;;;;;;5.25;2.67;;;20.10;99.90;;;;;;4990720;28;20124;-75
2023/07/31 04:46:51;;;;;;;6.45;2.60;;;20.10;99.90;;;;;;4991989;28;20032;-76
2023/07/31 04:49:16;;;;;;;5.13;3.03;;;20.10;99.90;;;;;;4990805;28;20050;-75
2023/07/31 04:51:42;;;;;;;6.15;2.83;;;20.20;99.90;;;;;;4965429;28;20034;-76
2023/07/31 04:54:08;;;;;;;5.00;2.83;;;20.10;99.90;;;;;;4980794;28;20030;-76
2023/07/31 04:56:33;;;;;;;4.45;2.63;;;20.20;99.90;;;;;;4987434;28;20068;-76
2023/07/31 04:58:59;;;;;;;5.10;2.78;;;20.10;99.90;;;;;;4987396;28;20030;-76
2023/07/31 05:01:25;;;;;;;4.90;2.50;;;20.00;99.90;;;;;;4991124;28;20353;-76
2023/07/31 05:03:51;;;;;;;10.55;3.30;;;20.00;99.90;;;;;;4989333;28;20037;-76
2023/07/31 05:06:16;;;;;;;5.90;3.20;;;20.00;99.90;;;;;;4989835;28;20041;-76
2023/07/31 05:08:42;;;;;;;4.32;2.75;;;20.00;99.90;;;;;;4989622;28;20085;-76
2023/07/31 05:11:08;;;;;;;5.32;2.60;;;20.00;99.90;;;;;;4988255;28;20540;-76
2023/07/31 05:13:33;;;;;;;4.60;2.83;;;20.20;99.90;;;;;;4991506;28;20077;-75
2023/07/31 05:15:59;;;;;;;5.85;3.13;;;20.20;99.90;;;;;;4987188;28;20396;-76
2023/07/31 05:18:25;;;;;;;6.13;2.25;;;20.20;99.90;;;;;;4990237;28;20060;-76
2023/07/31 05:20:50;;;;;;;4.57;2.90;;;20.10;99.90;;;;;;4989729;28;20599;-78
2023/07/31 05:23:16;;;;;;;4.68;2.83;;;20.20;99.90;;;;;;4990702;28;20050;-78
2023/07/31 05:25:41;;;;;;;6.90;2.88;;;20.20;99.90;;;;;;4990084;28;20036;-76
2023/07/31 05:28:07;;;;;;;5.60;2.85;;;20.30;99.90;;;;;;4994418;28;20090;-76
2023/07/31 05:30:33;;;;;;;5.95;2.97;;;20.30;99.90;;;;;;4989975;28;20026;-76
2023/07/31 05:32:59;;;;;;;4.25;2.67;;;20.10;99.90;;;;;;4988248;28;20397;-76
2023/07/31 05:35:24;;;;;;;7.85;2.58;;;20.00;99.90;;;;;;4986136;28;20073;-75
2023/07/31 05:37:50;;;;;;;5.13;2.75;;;20.10;99.90;;;;;;4994948;28;20046;-77
2023/07/31 05:40:16;;;;;;;7.88;2.90;;;20.10;99.90;;;;;;4985914;28;20043;-78
2023/07/31 05:42:41;;;;;;;7.68;2.63;;;20.10;99.90;;;;;;4983373;28;20217;-76
2023/07/31 05:45:08;;;;;;;7.30;2.95;;;20.20;99.90;;;;;;4987829;28;20581;-75
2023/07/31 05:47:34;;;;;;;4.75;2.50;;;20.20;99.90;;;;;;4971414;28;20165;-77
2023/07/31 05:49:59;;;;;;;6.65;2.70;;;20.20;99.90;;;;;;4984662;28;20117;-77
2023/07/31 05:52:25;;;;;;;11.82;3.60;;;20.00;99.90;;;;;;4987048;28;20176;-77
2023/07/31 05:54:51;;;;;;;4.18;2.53;;;20.10;99.90;;;;;;4986239;28;20092;-77
2023/07/31 05:57:17;;;;;;;4.00;2.47;;;20.40;99.90;;;;;;4985366;28;20035;-76
2023/07/31 05:59:42;;;;;;;3.97;2.53;;;20.50;99.90;;;;;;4987672;28;20034;-76
2023/07/31 06:02:08;;;;;;;7.18;2.65;;;20.60;99.90;;;;;;4985006;28;20027;-77
2023/07/31 06:04:34;;;;;;;4.47;2.20;;;20.80;99.90;;;;;;4988237;28;20038;-79
2023/07/31 06:07:00;;;;;;;4.43;2.67;;;20.80;99.90;;;;;;4987362;28;20029;-77
2023/07/31 06:09:26;;;;;;;6.55;3.03;;;20.90;99.90;;;;;;4987841;28;20022;-77
2023/07/31 06:11:52;;;;;;;3.60;2.08;;;21.00;99.90;;;;;;4987099;28;20049;-76
2023/07/31 06:14:18;;;;;;;5.70;2.50;;;20.90;99.90;;;;;;4987869;28;20623;-79
2023/07/31 06:16:44;;;;;;;5.30;2.55;;;21.00;99.90;;;;;;4983721;28;20037;-76
2023/07/31 06:19:10;;;;;;;6.03;2.80;;;21.00;99.90;;;;;;4986945;28;20019;-76
2023/07/31 06:21:39;;;;;;;7.07;2.90;;;21.00;99.90;;;;;;4988156;28;20534;-75
2023/07/31 06:24:08;;;;;;;5.30;2.83;;;21.00;99.90;;;;;;4986865;28;20026;-76
2023/07/31 06:26:33;;;;;;;4.97;2.10;;;21.10;99.90;;;;;;4986458;28;20035;-79
2023/07/31 06:28:59;;;;;;;6.68;2.63;;;21.30;99.90;;;;;;4986737;28;20546;-77
2023/07/31 06:31:25;;;;;;;5.50;2.53;;;21.40;99.90;;;;;;4979423;28;20567;-76
2023/07/31 06:33:52;;;;;;;7.50;3.25;;;21.50;99.90;;;;;;4967892;28;20037;-76
2023/07/31 06:36:17;;;;;;;4.35;2.20;;;21.50;99.90;;;;;;4967448;28;20034;-77
2023/07/31 06:38:43;;;;;;;5.07;3.13;;;21.40;99.90;;;;;;4981235;28;20033;-77
2023/07/31 06:41:10;;;;;;;6.50;2.70;;;21.50;99.90;;;;;;4986657;28;20022;-77
2023/07/31 06:43:36;;;;;;;5.07;2.20;;;21.50;99.90;;;;;;4987207;28;20449;-76
2023/07/31 06:46:06;;;;;;;5.28;2.70;;;21.60;99.90;;;;;;4982518;28;20044;-77
2023/07/31 06:48:33;;;;;;;3.97;2.15;;;21.50;99.90;;;;;;4985701;28;20030;-77
2023/07/31 06:50:59;;;;;;;5.43;2.60;;;21.50;99.90;;;;;;4996055;28;20358;-74
2023/07/31 06:53:24;;;;;;;7.13;2.50;;;21.50;99.90;;;;;;4983632;28;20999;-75
2023/07/31 06:55:51;;;;;;;6.63;2.50;;;21.70;99.90;;;;;;4983704;28;20122;-75
2023/07/31 06:58:18;;;;;;;8.43;3.00;;;21.70;99.90;;;;;;4983294;28;20879;-75
2023/07/31 07:00:43;;;;;;;9.55;2.88;;;21.90;99.90;;;;;;4989259;28;20037;-76
2023/07/31 07:03:09;;;;;;;6.22;2.20;;;22.00;99.90;;;;;;4988182;28;20417;-75
2023/07/31 07:05:35;;;;;;;5.82;2.20;;;22.00;99.90;;;;;;4978904;28;20043;-76
2023/07/31 07:08:01;;;;;;;5.63;2.70;;;22.10;99.90;;;;;;4978141;28;20117;-77
2023/07/31 07:10:26;;;;;;;7.22;2.60;;;22.00;99.90;;;;;;4987313;28;20036;-76
2023/07/31 07:12:53;;;;;;;4.63;2.50;;;21.90;99.90;;;;;;4989385;28;20439;-76
2023/07/31 07:15:18;;;;;;;4.60;2.40;;;21.90;99.90;;;;;;4987743;28;20121;-80
2023/07/31 07:17:44;;;;;;;6.45;2.65;;;22.20;99.90;;;;;;4989384;28;20113;-77
2023/07/31 07:20:10;;;;;;;5.05;2.75;;;22.50;99.90;;;;;;4988515;28;20027;-75
2023/07/31 07:22:36;;;;;;;5.40;2.45;;;22.30;99.90;;;;;;4986026;28;20515;-77
2023/07/31 07:25:02;;;;;;;4.60;2.10;;;22.30;99.90;;;;;;4988302;28;20033;-76
2023/07/31 07:27:28;;;;;;;7.88;2.67;;;22.50;99.90;;;;;;4986776;28;20026;-76
2023/07/31 07:29:53;;;;;;;6.70;2.72;;;22.80;99.90;;;;;;4987957;28;20022;-76
2023/07/31 07:32:20;;;;;;;8.57;2.67;;;23.00;99.90;;;;;;4987677;28;20038;-76
2023/07/31 07:34:48;;;;;;;6.78;2.55;;;22.90;99.90;;;;;;4988442;28;20045;-78
2023/07/31 07:37:14;;;;;;;11.40;3.03;;;22.60;99.90;;;;;;4987635;28;20088;-76
2023/07/31 07:39:41;;;;;;;7.90;2.60;;;22.50;99.90;;;;;;4989261;28;20037;-76
2023/07/31 07:42:06;;;;;;;5.82;2.40;;;22.50;99.90;;;;;;4971026;28;20089;-76
2023/07/31 07:44:32;;;;;;;3.72;2.58;;;22.40;99.90;;;;;;4986420;28;20445;-77
2023/07/31 07:46:58;;;;;;;12.65;2.80;;;22.20;99.90;;;;;;4984538;28;20037;-77
2023/07/31 07:49:23;;;;;;;4.03;2.40;;;22.20;99.90;;;;;;4988496;28;20496;-76
2023/07/31 07:51:49;;;;;;;5.38;2.55;;;22.30;99.90;;;;;;4987173;28;20622;-77
2023/07/31 07:54:16;;;;;;;4.03;2.40;;;22.40;99.90;;;;;;4977472;28;20035;-76
2023/07/31 07:56:42;;;;;;;6.38;3.00;;;22.30;99.90;;;;;;4979903;28;20364;-77
2023/07/31 07:59:08;;;;;;;5.43;3.03;;;22.40;99.90;;;;;;4984726;28;20034;-76
2023/07/31 08:01:34;;;;;;;5.10;3.20;;;22.70;99.90;;;;;;4984226;28;20081;-76
2023/07/31 08:04:00;;;;;;;5.55;2.47;;;22.60;99.90;;;;;;4985253;28;20027;-77
2023/07/31 08:06:25;;;;;;;4.68;2.78;;;22.80;99.90;;;;;;4983991;28;20181;-77
2023/07/31 08:08:51;;;;;;;5.40;2.20;;;22.80;99.90;;;;;;4986527;28;20117;-75
2023/07/31 08:11:17;;;;;;;7.40;2.88;;;22.70;99.90;;;;;;4986052;28;20154;-76
2023/07/31 08:13:42;;;;;;;6.65;2.55;;;22.60;99.90;;;;;;4983416;28;20396;-76
2023/07/31 08:16:08;;;;;;;5.28;2.15;;;22.40;99.90;;;;;;4984072;28;20057;-76
2023/07/31 08:18:34;;;;;;;6.30;2.15;;;22.30;99.90;;;;;;4985668;28;20647;-76
2023/07/31 08:21:04;;;;;;;4.53;2.28;;;23.30;99.90;;;;;;4985187;28;20023;-76
2023/07/31 08:23:30;;;;;;;7.85;2.55;;;24.60;99.90;;;;;;4985701;28;20546;-77
2023/07/31 08:25:56;;;;;;;3.90;2.40;;;24.40;99.90;;;;;;4984969;28;20031;-76
2023/07/31 08:28:21;;;;;;;5.15;2.50;;;24.70;99.90;;;;;;4985568;28;20038;-76
2023/07/31 08:30:47;;;;;;;7.97;2.80;;;24.90;99.90;;;;;;4984261;28;20416;-75
2023/07/31 08:33:13;;;;;;;6.72;2.47;;;25.00;99.90;;;;;;4966671;28;20035;-75
2023/07/31 08:35:38;;;;;;;4.47;2.40;;;23.90;99.90;;;;;;4966666;28;20038;-75
2023/07/31 08:38:04;;;;;;;6.55;2.20;;;23.60;99.90;;;;;;4971708;28;20440;-75
2023/07/31 08:40:30;;;;;;;4.07;2.17;;;23.60;99.90;;;;;;4985518;28;20033;-75
2023/07/31 08:43:02;;;;;;;5.35;2.08;;;23.50;99.90;;;;;;4985504;28;20018;-76
2023/07/31 08:45:28;;;;;;;3.92;2.33;;;23.70;99.90;;;;;;4985129;28;20511;-81
2023/07/31 08:47:56;;;;;;;5.40;1.95;;;23.80;99.80;;;;;;4984481;28;20029;-75
2023/07/31 08:50:22;;;;;;;8.50;2.17;;;24.00;99.90;;;;;;4985424;28;20472;-78
2023/07/31 08:52:50;;;;;;;6.18;2.05;;;24.30;99.90;;;;;;4985755;28;20033;-76
2023/07/31 08:55:15;;;;;;;7.63;2.13;;;24.70;99.90;;;;;;4981280;28;20108;-77
2023/07/31 08:57:42;;;;;;;4.68;1.92;;;24.90;99.90;;;;;;4982711;28;20062;-77
2023/07/31 09:00:09;;;;;;;4.22;2.38;;;24.80;99.40;;;;;;4977860;28;20030;-76
2023/07/31 09:02:45;;;;;;;4.53;2.70;;;24.70;97.20;;;;;;4986447;28;20041;-77
2023/07/31 09:05:11;;;;;;;4.53;2.25;;;24.80;97.70;;;;;;4987047;28;20034;-75
2023/07/31 09:07:38;;;;;;;6.70;2.47;;;24.90;98.00;;;;;;4984835;28;20037;-78
2023/07/31 09:10:04;;;;;;;5.75;3.10;;;25.00;99.10;;;;;;4983438;28;20042;-76
2023/07/31 09:12:31;;;;;;;5.88;2.00;;;25.20;99.40;;;;;;4987923;28;20100;-74
2023/07/31 09:15:00;;;;;;;3.95;2.10;;;25.20;98.40;;;;;;4989848;28;20066;-75
2023/07/31 09:17:33;;;;;;;4.63;2.25;;;25.10;97.50;;;;;;4989124;28;20026;-76
2023/07/31 09:20:16;;;;;;;5.55;2.25;;;25.10;98.60;;;;;;4988350;28;20088;-76
2023/07/31 09:22:43;;;;;;;5.43;2.03;;;25.00;97.80;;;;;;4990180;28;20547;-75
2023/07/31 09:25:18;;;;;;;3.45;2.00;;;24.70;98.00;;;;;;4990002;28;20026;-75
2023/07/31 09:27:58;;;;;;;4.05;2.30;;;24.70;98.20;;;;;;4988332;28;20509;-76
2023/07/31 09:30:24;;;;;;;5.28;2.22;;;25.00;98.80;;;;;;4988699;28;20038;-75
2023/07/31 09:32:51;;;;;;;3.47;1.88;;;25.30;98.70;;;;;;4990584;28;20101;-75
2023/07/31 09:35:33;;;;;;;4.15;2.28;;;25.10;99.50;;;;;;4989320;28;20038;-76
2023/07/31 09:38:19;;;;;;;4.43;2.35;;;24.90;98.00;;;;;;4988538;28;20373;-76
2023/07/31 09:40:49;;;;;;;3.72;2.10;;;24.90;99.10;;;;;;4970682;28;20567;-76
2023/07/31 09:43:19;;;;;;;3.88;2.05;;;24.90;98.80;;;;;;4985448;28;20109;-76
2023/07/31 09:45:46;;;;;;;5.10;2.13;;;24.60;98.00;;;;;;4988400;28;20069;-75
2023/07/31 09:48:15;;;;;;;4.80;2.85;;;24.80;98.10;;;;;;4985270;28;20033;-74
2023/07/31 09:50:43;;;;;;;10.88;2.90;;;25.20;98.40;;;;;;4989376;28;20030;-76
2023/07/31 09:53:09;;;;;;;5.60;2.30;;;26.00;97.80;;;;;;4990093;28;20042;-74
2023/07/31 09:55:36;;;;;;;11.85;2.63;;;26.20;98.20;;;;;;4987575;28;20039;-75
2023/07/31 09:58:07;;;;;;;5.03;2.30;;;26.40;98.10;;;;;;4986250;28;20058;-75
2023/07/31 10:00:33;;;;;;;4.68;2.83;;;26.20;97.40;;;;;;4988864;28;20922;-76
2023/07/31 10:03:01;;;;;;;5.30;2.17;;;26.40;97.10;;;;;;4989133;28;20030;-76
2023/07/31 10:05:50;;;;;;;5.68;2.70;;;26.40;97.70;;;;;;4991290;28;20066;-75
2023/07/31 10:08:19;;;;;;;8.80;2.25;;;26.30;96.70;;;;;;4984232;28;20042;-76
2023/07/31 10:10:46;;;;;;;4.60;2.05;;;26.90;97.00;;;;;;4975728;28;20070;-77
2023/07/31 10:13:13;;;;;;;5.03;2.35;;;26.70;96.40;;;;;;4987445;28;20062;-77
2023/07/31 10:15:41;;;;;;;5.15;2.17;;;26.60;96.90;;;;;;4971627;28;20061;-76
2023/07/31 10:18:07;;;;;;;6.07;2.67;;;26.90;96.70;;;;;;4972655;28;20051;-76
2023/07/31 10:20:34;;;;;;;6.15;2.38;;;26.50;97.30;;;;;;4977816;28;20054;-76
2023/07/31 10:23:01;;;;;;;4.40;2.22;;;26.40;95.90;;;;;;4991726;28;20559;-76
2023/07/31 10:25:27;;;;;;;3.67;1.98;;;26.70;97.40;;;;;;4991928;28;20141;-75
2023/07/31 10:27:54;;;;;;;5.32;2.40;;;26.90;97.40;;;;;;4990832;28;20093;-74
2023/07/31 10:30:29;;;;;;;5.85;2.60;;;26.90;96.70;;;;;;4989222;28;20027;-75
2023/07/31 10:32:56;;;;;;;6.20;2.75;;;26.80;96.50;;;;;;4991085;28;20400;-75
2023/07/31 10:35:22;;;;;;;4.60;2.33;;;27.10;96.60;;;;;;4991940;28;20535;-75
2023/07/31 10:37:48;;;;;;;5.38;2.38;;;27.10;96.50;;;;;;4991204;28;20030;-75
2023/07/31 10:40:32;;;;;;;3.67;2.15;;;27.50;96.70;;;;;;4990291;28;20041;-76
2023/07/31 10:42:58;;;;;;;;;;;27.50;96.40;;;;;;4992424;28;20026;-75
2023/07/31 10:45:30;;;;;;;4.57;2.47;;;27.20;96.40;;;;;;4983973;28;19913;-75
2023/07/31 10:48:00;;;;;;;4.03;2.28;;;27.20;96.50;;;;;;4982934;28;20496;-75
2023/07/31 10:50:27;;;;;;;6.13;2.13;;;27.10;96.80;;;;;;4992462;28;20037;-75
2023/07/31 10:52:54;;;;;;;7.55;2.70;;;27.20;97.50;;;;;;4991696;28;20101;-75
2023/07/31 10:55:42;;;;;;;5.65;2.90;;;27.30;96.90;;;;;;4987917;28;20043;-75
2023/07/31 10:58:10;;;;;;;6.50;2.78;;;27.20;96.60;;;;;;4987901;28;20749;-75
2023/07/31 11:00:44;;;;;;;5.03;2.72;;;27.20;97.20;;;;;;4989782;28;20038;-76
2023/07/31 11:03:13;;;;;;;5.43;2.60;;;27.50;97.50;;;;;;4988299;28;20034;-77
2023/07/31 11:05:49;;;;;;;7.15;2.80;;;27.60;97.00;;;;;;4988844;28;20037;-76
2023/07/31 11:08:24;;;;;;;5.40;2.83;;;27.80;97.00;;;;;;4989975;28;20034;-75
2023/07/31 11:11:11;;;;;;;4.80;2.75;;;28.00;96.20;;;;;;4989872;28;20109;-75
2023/07/31 11:13:39;;;;;;;6.28;2.85;;;28.00;96.80;;;;;;4954031;28;20114;-75
2023/07/31 11:16:05;;;;;;;5.18;2.80;;;28.10;97.60;;;;;;4962090;28;20041;-75
2023/07/31 11:18:31;;;;;;;4.53;2.47;;;28.30;97.00;;;;;;4989769;28;20106;-75
2023/07/31 11:20:57;;;;;;;5.85;2.50;;;28.30;97.50;;;;;;4991340;28;20061;-76
2023/07/31 11:23:23;;;;;;;5.53;2.55;;;28.30;97.20;;;;;;4989578;28;20439;-76
2023/07/31 11:25:50;;;;;;;3.92;2.38;;;28.20;96.10;;;;;;4990798;28;20022;-75
2023/07/31 11:28:17;;;;;;;5.60;2.15;;;28.10;96.60;;;;;;4989864;28;20354;-75
2023/07/31 11:30:46;;;;;;;5.40;2.83;;;28.30;96.50;;;;;;4989828;28;20045;-76
2023/07/31 11:33:13;;;;;;;5.18;2.55;;;28.70;98.30;;;;;;4990145;28;20035;-77
2023/07/31 11:35:48;;;;;;;5.60;2.55;;;28.70;96.90;;;;;;4989923;28;20038;-75
2023/07/31 11:38:27;;;;;;;4.68;2.38;;;28.70;96.90;;;;;;4991079;28;20026;-75
2023/07/31 11:40:55;;;;;;;5.55;2.30;;;28.20;97.10;;;;;;4988241;28;20029;-75
2023/07/31 11:43:26;;;;;;;4.10;2.30;;;28.40;97.40;;;;;;4988378;28;20031;-76
2023/07/31 11:45:54;;;;;;;8.82;3.38;;;28.70;97.90;;;;;;4988657;28;20029;-75
2023/07/31 11:48:26;;;;;;;4.50;2.58;;;28.80;97.90;;;;;;4989731;28;20088;-75
2023/07/31 11:50:57;;;;;;;3.95;2.10;;;28.80;96.70;;;;;;4971969;28;20034;-76
2023/07/31 11:53:42;;;;;;;4.60;2.22;;;28.60;96.40;;;;;;4989859;28;20030;-75
2023/07/31 11:56:11;;;;;;;5.20;2.30;;;28.70;96.30;;;;;;4990859;28;20392;-74
2023/07/31 11:58:38;;;;;;;5.65;2.40;;;28.80;97.00;;;;;;4989801;28;20400;-75
2023/07/31 12:01:05;;;;;;;3.85;2.33;;;28.60;97.40;;;;;;4986858;28;20026;-75
2023/07/31 12:03:31;;;;;;;4.93;2.88;;;28.80;97.10;;;;;;5075493;23;20058;-72
2023/07/31 12:05:59;;;;;;;4.22;1.92;;;28.90;97.20;;;;;;4971906;28;20511;-71
2023/07/31 12:08:25;;;;;;;7.60;2.38;;;29.30;97.90;;;;;;4974292;28;20026;-71
2023/07/31 12:10:52;;;;;;;4.40;2.30;;;29.40;97.70;;;;;;4963889;28;20030;-71
2023/07/31 12:13:23;;;;;;;3.60;2.35;;;29.40;97.10;;;;;;4969034;28;20022;-71
2023/07/31 12:15:53;;;;;;;3.83;2.30;;;29.20;96.40;;;;;;4979717;28;20038;-72
2023/07/31 12:18:20;;;;;;;3.80;2.42;;;29.40;96.80;;;;;;4977860;28;20037;-71
2023/07/31 12:20:49;;;;;;;3.80;1.98;;;29.40;97.00;;;;;;4996069;28;20080;-73
2023/07/31 12:23:29;;;;;;;4.55;2.80;;;29.50;96.90;;;;;;4978529;28;20038;-72
2023/07/31 12:26:10;;;;;;;3.92;2.30;;;29.50;97.00;;;;;;4963733;28;20034;-72
2023/07/31 12:28:40;;;;;;;4.28;2.40;;;29.00;97.00;;;;;;4983526;28;20388;-72
2023/07/31 12:31:07;;;;;;;5.38;1.98;;;29.20;97.50;;;;;;4978363;28;20165;-72
2023/07/31 12:33:35;;;;;;;4.80;1.90;;;29.40;97.20;;;;;;4984347;28;20029;-72
2023/07/31 12:36:03;;;;;;;5.32;2.53;;;29.50;97.20;;;;;;4987465;28;20081;-72
2023/07/31 12:38:30;;;;;;;5.68;2.67;;;29.30;97.30;;;;;;4987672;28;20030;-72
2023/07/31 12:40:56;;;;;;;5.95;2.75;;;28.90;97.50;;;;;;4988477;28;20050;-72
2023/07/31 12:43:21;;;;;;;4.18;2.30;;;29.00;97.30;;;;;;4988234;28;20068;-72
2023/07/31 12:45:47;;;;;;;5.40;2.60;;;29.50;97.40;;;;;;4985439;28;20023;-72
2023/07/31 12:48:13;;;;;;;5.05;2.40;;;29.50;97.20;;;;;;4982566;28;20037;-71